Time;durP1;ratioP1;P1;durP2;ratioP2;P2;SDS_P1;SDS_P2;PMS_P1;PMS_P2;Temp;Humidity;BMP_temperature;BMP_pressure;BME280_temperature;BME280_humidity;BME280_pressure;Samples;Min_cycle;Max_cycle;Signal;HPM_P1;HPM_P2
2021/05/06 00:34:08;;;;;;;1.20;0.30;;;14.10;63.60;;;;;;5114197;28;20388;-67
2021/05/06 00:36:35;;;;;;;0.98;0.30;;;14.10;64.00;;;;;;5114179;28;20019;-68
2021/05/06 00:39:06;;;;;;;1.17;0.40;;;14.10;63.90;;;;;;5114406;28;20101;-68
2021/05/06 00:57:26;;;;;;;1.30;0.28;;;14.00;62.00;;;;;;5113625;28;20065;-67
2021/05/06 01:04:54;;;;;;;1.13;0.38;;;13.90;62.70;;;;;;5112480;28;20032;-67
2021/05/06 01:12:25;;;;;;;0.45;0.20;;;13.90;61.20;;;;;;5113676;28;20111;-67
2021/05/06 01:14:51;;;;;;;0.57;0.20;;;13.80;61.80;;;;;;5113521;28;20114;-68
2021/05/06 01:17:17;;;;;;;2.55;0.25;;;13.80;62.30;;;;;;5113847;28;20104;-67
2021/05/06 01:19:43;;;;;;;0.93;0.20;;;13.80;62.20;;;;;;5113787;28;20433;-67
2021/05/06 01:22:08;;;;;;;1.65;0.30;;;13.70;61.50;;;;;;5113239;28;20096;-66
2021/05/06 01:24:36;;;;;;;0.65;0.22;;;13.70;62.00;;;;;;5113729;28;20037;-67
2021/05/06 01:29:35;;;;;;;0.35;0.20;;;13.60;61.10;;;;;;5113176;28;20126;-68
2021/05/06 01:32:14;;;;;;;0.65;0.30;;;13.70;61.70;;;;;;5113132;28;20364;-67
2021/05/06 01:34:42;;;;;;;0.30;0.20;;;13.60;61.80;;;;;;5113099;28;20059;-66
2021/05/06 01:37:18;;;;;;;1.38;0.30;;;13.60;61.70;;;;;;5113140;28;20030;-66
2021/05/06 01:42:19;;;;;;;0.60;0.20;;;13.60;62.00;;;;;;5113344;28;20114;-67
2021/05/06 02:00:38;;;;;;;1.27;0.13;;;13.60;60.30;;;;;;5113498;28;20030;-68
2021/05/06 02:03:03;;;;;;;2.88;0.20;;;13.60;60.10;;;;;;5113048;28;20468;-67
2021/05/06 02:05:29;;;;;;;2.15;0.17;;;13.50;59.80;;;;;;5113214;28;20104;-67
2021/05/06 02:07:55;;;;;;;1.25;0.10;;;13.40;60.50;;;;;;5116174;28;20044;-67
2021/05/06 02:10:27;;;;;;;1.30;0.32;;;13.30;60.70;;;;;;5117232;28;20050;-67
2021/05/06 02:12:53;;;;;;;1.85;0.28;;;13.30;61.00;;;;;;5116919;28;20019;-67
2021/05/06 02:15:32;;;;;;;1.58;0.30;;;13.30;61.10;;;;;;5116684;28;20024;-66
2021/05/06 02:17:58;;;;;;;1.85;0.82;;;13.30;61.10;;;;;;5116749;28;20024;-68
2021/05/06 02:20:25;;;;;;;2.05;0.20;;;13.20;61.20;;;;;;5116689;28;20034;-68
2021/05/06 02:22:51;;;;;;;0.40;0.10;;;13.30;61.20;;;;;;5116899;28;20504;-67
2021/05/06 02:25:18;;;;;;;0.88;0.20;;;13.20;61.20;;;;;;5116891;28;20479;-68
2021/05/06 02:27:44;;;;;;;2.83;0.30;;;13.20;61.40;;;;;;5116521;28;20019;-67
2021/05/06 02:30:11;;;;;;;3.95;0.25;;;13.20;61.70;;;;;;5116904;28;20039;-68
2021/05/06 02:32:37;;;;;;;1.17;0.45;;;13.20;60.90;;;;;;5116876;28;20357;-67
2021/05/06 02:35:04;;;;;;;0.88;0.20;;;13.20;60.50;;;;;;5116555;28;20069;-67
2021/05/06 02:37:29;;;;;;;0.57;0.13;;;13.20;60.30;;;;;;5116113;28;20042;-67
2021/05/06 02:39:55;;;;;;;2.13;0.28;;;13.20;60.20;;;;;;5116581;28;20027;-68
2021/05/06 02:42:21;;;;;;;0.65;0.20;;;13.10;60.20;;;;;;5116083;28;20084;-67
2021/05/06 02:44:47;;;;;;;1.20;0.20;;;13.10;61.40;;;;;;5116437;28;20524;-67
2021/05/06 02:47:13;;;;;;;1.38;0.28;;;13.10;60.80;;;;;;5116238;28;20024;-67
2021/05/06 02:49:47;;;;;;;3.03;0.20;;;13.10;61.20;;;;;;5116087;28;20433;-67
2021/05/06 02:54:47;;;;;;;1.08;0.30;;;13.10;60.70;;;;;;5116483;28;20104;-68
2021/05/06 03:05:32;;;;;;;1.17;0.20;;;13.10;60.50;;;;;;5073104;28;20059;-68
2021/05/06 03:08:04;;;;;;;0.52;0.10;;;13.10;59.30;;;;;;5072922;28;20052;-67
2021/05/06 03:23:44;;;;;;;0.40;0.20;;;13.00;58.70;;;;;;5115821;28;20072;-67
2021/05/06 03:26:12;;;;;;;0.20;0.20;;;12.90;59.30;;;;;;5115744;28;20034;-68
2021/05/06 03:28:42;;;;;;;3.63;0.20;;;12.90;59.00;;;;;;5115322;28;20035;-68
2021/05/06 03:31:25;;;;;;;0.45;0.20;;;12.80;58.70;;;;;;5115346;28;20015;-69
2021/05/06 03:42:08;;;;;;;1.25;0.20;;;12.80;58.30;;;;;;5115811;28;20034;-68
2021/05/06 03:44:47;;;;;;;1.23;0.10;;;12.70;58.60;;;;;;5115256;28;20153;-67
2021/05/06 03:50:27;;;;;;;0.10;0.10;;;12.80;58.50;;;;;;5115063;28;20036;-68
2021/05/06 04:15:25;;;;;;;0.22;0.17;;;12.60;58.30;;;;;;5114719;28;20050;-67
2021/05/06 04:26:18;;;;;;;1.10;0.20;;;12.60;59.20;;;;;;5114582;28;20031;-67
2021/05/06 04:38:59;;;;;;;0.25;0.10;;;12.40;58.70;;;;;;5114162;28;20475;-67
2021/05/06 04:41:54;;;;;;;0.20;0.10;;;12.40;57.80;;;;;;5113971;28;20043;-68
2021/05/06 04:55:26;;;;;;;4.80;0.10;;;12.30;59.20;;;;;;5114178;28;20034;-69
2021/05/06 05:05:43;;;;;;;1.23;0.15;;;12.10;62.70;;;;;;5113757;28;20094;-69
2021/05/06 05:08:14;;;;;;;1.75;0.28;;;12.10;63.10;;;;;;5113396;28;20087;-67
2021/05/06 05:11:28;;;;;;;1.25;0.22;;;12.00;62.70;;;;;;5113920;28;20037;-69
2021/05/06 05:24:24;;;;;;;0.98;0.20;;;12.00;62.50;;;;;;5113916;28;20108;-69
2021/05/06 05:26:50;;;;;;;0.90;0.30;;;12.00;61.90;;;;;;5113642;28;20065;-69
2021/05/06 05:29:16;;;;;;;0.28;0.20;;;12.00;61.30;;;;;;5113185;28;20483;-69
2021/05/06 05:31:41;;;;;;;1.17;0.20;;;12.00;61.50;;;;;;5113639;28;20034;-70
2021/05/06 05:36:51;;;;;;;0.20;0.20;;;12.00;62.00;;;;;;5113765;28;20023;-68
2021/05/06 05:39:43;;;;;;;2.00;0.20;;;12.00;62.90;;;;;;5113520;28;20106;-69
2021/05/06 05:42:25;;;;;;;10.63;0.60;;;12.00;62.70;;;;;;5116796;28;20024;-69
2021/05/06 05:55:28;;;;;;;0.40;0.20;;;12.10;60.10;;;;;;5117573;28;20039;-67
2021/05/06 05:57:54;;;;;;;2.17;0.45;;;12.10;60.20;;;;;;5116515;28;20032;-68
2021/05/06 06:00:20;;;;;;;0.73;0.20;;;12.10;60.80;;;;;;5116272;28;20050;-69
2021/05/06 06:02:46;;;;;;;2.15;0.28;;;12.10;61.30;;;;;;5116156;28;20110;-68
2021/05/06 06:05:12;;;;;;;1.30;0.35;;;12.10;61.70;;;;;;5115926;28;20031;-68
2021/05/06 06:07:38;;;;;;;1.40;0.30;;;12.10;62.70;;;;;;5116497;28;20130;-70
2021/05/06 06:10:05;;;;;;;1.02;0.40;;;12.10;62.30;;;;;;5116211;28;20116;-68
2021/05/06 06:12:30;;;;;;;1.08;0.40;;;12.10;61.70;;;;;;5115138;28;20495;-66
2021/05/06 06:15:05;;;;;;;1.30;0.65;;;12.10;62.00;;;;;;5116531;28;20030;-70
2021/05/06 06:17:38;;;;;;;0.90;0.40;;;12.20;62.40;;;;;;5115883;28;20111;-68
2021/05/06 06:20:05;;;;;;;0.98;0.38;;;12.10;63.30;;;;;;5116180;28;20053;-68
2021/05/06 06:22:31;;;;;;;0.93;0.25;;;12.20;62.50;;;;;;5116209;28;20027;-69
2021/05/06 06:24:58;;;;;;;0.28;0.20;;;12.20;62.00;;;;;;5116207;28;20118;-67
2021/05/06 06:27:24;;;;;;;0.35;0.20;;;12.10;61.10;;;;;;5115977;28;20107;-69
2021/05/06 06:29:50;;;;;;;0.70;0.30;;;12.20;60.90;;;;;;5116440;28;20139;-69
2021/05/06 06:32:17;;;;;;;0.88;0.38;;;12.10;60.50;;;;;;5115946;28;20110;-68
2021/05/06 06:34:43;;;;;;;1.67;0.38;;;12.10;60.40;;;;;;5115670;28;20027;-69
2021/05/06 06:37:09;;;;;;;0.70;0.30;;;12.20;60.60;;;;;;5115987;28;20019;-66
2021/05/06 06:39:39;;;;;;;0.45;0.30;;;12.10;60.70;;;;;;5115811;28;20027;-66
2021/05/06 06:42:07;;;;;;;1.67;0.30;;;12.10;61.30;;;;;;5116034;28;20363;-68
2021/05/06 06:44:33;;;;;;;1.23;0.40;;;12.20;61.50;;;;;;5115710;28;20032;-68
2021/05/06 06:47:06;;;;;;;1.52;0.47;;;12.20;62.00;;;;;;5115844;28;20418;-68
2021/05/06 06:49:39;;;;;;;2.67;0.40;;;12.20;61.30;;;;;;5115582;28;20031;-67
2021/05/06 06:52:07;;;;;;;0.82;0.35;;;12.20;60.80;;;;;;5114576;28;20027;-68
2021/05/06 06:54:34;;;;;;;0.45;0.25;;;12.20;60.80;;;;;;5115527;28;20024;-68
2021/05/06 06:56:59;;;;;;;1.08;0.35;;;12.20;61.10;;;;;;5115506;28;20024;-69
2021/05/06 06:59:26;;;;;;;0.93;0.40;;;12.20;61.20;;;;;;5115218;28;20076;-69
2021/05/06 07:01:52;;;;;;;2.13;0.25;;;12.20;61.70;;;;;;5115414;28;20139;-69
2021/05/06 07:04:19;;;;;;;1.95;0.40;;;12.20;61.40;;;;;;5115196;28;20099;-68
2021/05/06 07:06:44;;;;;;;1.00;0.43;;;12.20;61.40;;;;;;5114955;28;20036;-67
2021/05/06 07:09:11;;;;;;;1.58;0.47;;;12.20;62.30;;;;;;5114777;28;20104;-67
2021/05/06 07:11:38;;;;;;;2.47;0.57;;;12.20;63.40;;;;;;5115206;28;20438;-67
2021/05/06 07:14:04;;;;;;;0.40;0.32;;;12.30;63.30;;;;;;5114637;28;20103;-68
2021/05/06 07:16:31;;;;;;;1.73;0.43;;;12.30;63.00;;;;;;5115005;28;20467;-67
2021/05/06 07:18:57;;;;;;;0.65;0.45;;;12.30;62.50;;;;;;5115188;28;20023;-67
2021/05/06 07:21:23;;;;;;;0.60;0.60;;;12.30;61.90;;;;;;5114024;28;20058;-67
2021/05/06 07:23:49;;;;;;;1.73;0.60;;;12.30;61.80;;;;;;5113829;28;20498;-65
2021/05/06 07:26:15;;;;;;;1.38;0.50;;;12.30;61.70;;;;;;5115051;28;20515;-65
2021/05/06 07:28:43;;;;;;;1.05;0.40;;;12.30;61.00;;;;;;5114502;28;20046;-65
2021/05/06 07:31:11;;;;;;;2.22;0.38;;;12.30;60.60;;;;;;5114261;28;20020;-66
2021/05/06 07:33:37;;;;;;;0.77;0.50;;;12.30;60.40;;;;;;5114657;28;20528;-65
2021/05/06 07:36:03;;;;;;;1.45;0.80;;;12.30;60.40;;;;;;5114654;28;20019;-65
2021/05/06 07:38:31;;;;;;;2.10;0.70;;;12.20;60.60;;;;;;5114610;28;20080;-66
2021/05/06 07:41:00;;;;;;;0.85;0.50;;;12.20;60.70;;;;;;5114248;28;20016;-67
2021/05/06 07:43:30;;;;;;;2.28;0.75;;;12.20;61.20;;;;;;5114154;28;20118;-65
2021/05/06 07:45:56;;;;;;;0.73;0.50;;;12.20;61.30;;;;;;5114364;28;20031;-67
2021/05/06 07:48:22;;;;;;;1.10;0.60;;;12.20;61.20;;;;;;5114539;27;20100;-67
2021/05/06 07:50:48;;;;;;;1.40;0.70;;;12.20;62.30;;;;;;5113458;28;20500;-64
2021/05/06 07:53:21;;;;;;;2.15;0.63;;;12.20;61.80;;;;;;5114603;28;20094;-67
2021/05/06 07:55:46;;;;;;;1.13;0.50;;;12.20;61.30;;;;;;5114498;28;20032;-67
2021/05/06 07:58:12;;;;;;;4.15;1.65;;;12.20;60.90;;;;;;5114468;28;20028;-64
2021/05/06 08:00:38;;;;;;;4.20;1.25;;;12.20;61.10;;;;;;5114687;28;20027;-64
2021/05/06 08:03:06;;;;;;;2.50;0.98;;;12.20;61.40;;;;;;5114808;28;20023;-64
2021/05/06 08:05:32;;;;;;;3.15;0.60;;;12.20;61.20;;;;;;5114418;28;20472;-67
2021/05/06 08:07:57;;;;;;;1.27;0.60;;;12.20;62.00;;;;;;5113733;28;20051;-67
2021/05/06 08:10:23;;;;;;;2.65;0.80;;;12.20;62.00;;;;;;5113970;28;20105;-68
2021/05/06 08:12:50;;;;;;;2.85;0.70;;;12.20;63.90;;;;;;5114623;27;20084;-67
2021/05/06 08:15:16;;;;;;;0.90;0.57;;;12.10;65.70;;;;;;5114540;28;20042;-68
2021/05/06 08:17:42;;;;;;;1.02;0.60;;;12.10;66.40;;;;;;5114460;28;20027;-67
2021/05/06 08:20:11;;;;;;;1.88;0.60;;;12.10;66.00;;;;;;5114117;28;20051;-67
2021/05/06 08:22:37;;;;;;;2.83;0.70;;;12.10;66.40;;;;;;5113877;28;20059;-66
2021/05/06 08:25:05;;;;;;;4.82;0.60;;;12.10;65.10;;;;;;5113558;28;20030;-68
2021/05/06 08:27:31;;;;;;;4.53;0.80;;;12.00;64.90;;;;;;5113742;28;20103;-68
2021/05/06 08:29:57;;;;;;;2.97;1.00;;;12.00;66.40;;;;;;5113785;28;20039;-64
2021/05/06 08:32:23;;;;;;;2.83;0.68;;;12.00;67.20;;;;;;5113918;28;20099;-67
2021/05/06 08:34:49;;;;;;;0.98;0.55;;;11.90;67.70;;;;;;5113789;28;20193;-65
2021/05/06 08:37:15;;;;;;;2.65;0.65;;;11.80;68.50;;;;;;5113703;28;20059;-67
2021/05/06 08:39:42;;;;;;;1.83;0.77;;;11.80;69.00;;;;;;5113644;28;20047;-65
2021/05/06 08:42:08;;;;;;;1.15;0.70;;;11.70;69.30;;;;;;5113972;28;20415;-67
2021/05/06 08:44:36;;;;;;;4.45;0.82;;;11.60;69.20;;;;;;5113929;28;20475;-64
2021/05/06 08:47:07;;;;;;;3.08;0.63;;;11.70;70.10;;;;;;5113758;28;20079;-65
2021/05/06 08:49:35;;;;;;;4.63;0.85;;;11.60;70.50;;;;;;5113237;28;20031;-66
2021/05/06 08:52:06;;;;;;;1.10;0.40;;;11.60;70.80;;;;;;5113787;28;20395;-65
2021/05/06 08:54:32;;;;;;;1.60;0.60;;;11.60;70.50;;;;;;5113189;28;20424;-66
2021/05/06 08:56:59;;;;;;;2.20;1.00;;;11.60;70.30;;;;;;5113764;28;20137;-67
2021/05/06 08:59:28;;;;;;;1.65;1.00;;;11.60;70.30;;;;;;5113617;28;20043;-67
2021/05/06 09:01:55;;;;;;;6.28;0.80;;;11.60;70.40;;;;;;5111842;28;20015;-67
2021/05/06 09:04:21;;;;;;;1.50;0.80;;;11.60;70.80;;;;;;5112605;28;20024;-66
2021/05/06 09:06:58;;;;;;;2.15;0.73;;;11.60;71.10;;;;;;5112888;28;20166;-66
2021/05/06 09:09:25;;;;;;;2.10;0.80;;;11.60;71.20;;;;;;5113436;28;20028;-67
2021/05/06 09:11:53;;;;;;;1.33;0.80;;;11.70;71.50;;;;;;5113432;28;20019;-67
2021/05/06 09:14:19;;;;;;;2.28;0.85;;;11.70;71.80;;;;;;5113661;28;20039;-67
2021/05/06 09:16:45;;;;;;;2.80;0.80;;;11.70;71.70;;;;;;5113111;28;20055;-67
2021/05/06 09:19:20;;;;;;;1.95;0.68;;;11.70;71.90;;;;;;5113208;28;20034;-67
2021/05/06 09:21:46;;;;;;;3.55;0.80;;;11.70;71.30;;;;;;5113811;28;20055;-67
2021/05/06 09:24:19;;;;;;;1.42;0.70;;;11.70;71.50;;;;;;5113414;28;20065;-66
2021/05/06 09:26:45;;;;;;;1.67;0.88;;;11.70;72.10;;;;;;5113513;28;20104;-67
2021/05/06 09:29:27;;;;;;;2.15;0.90;;;11.70;72.10;;;;;;5113349;28;20081;-66
2021/05/06 09:31:53;;;;;;;1.83;0.80;;;11.80;72.20;;;;;;5113496;28;20102;-66
2021/05/06 09:34:18;;;;;;;3.45;1.00;;;11.80;72.00;;;;;;5113508;28;20529;-68
2021/05/06 09:36:44;;;;;;;3.92;0.70;;;11.80;72.00;;;;;;5113221;28;20034;-67
2021/05/06 09:39:10;;;;;;;3.70;0.70;;;11.80;71.90;;;;;;5113267;28;20038;-68
2021/05/06 09:41:37;;;;;;;2.78;1.00;;;11.80;71.70;;;;;;5113103;28;20388;-68
2021/05/06 09:44:17;;;;;;;2.53;0.60;;;11.80;71.60;;;;;;5112253;28;20027;-67
2021/05/06 09:46:55;;;;;;;2.00;0.63;;;11.80;71.50;;;;;;5112259;28;20028;-67
2021/05/06 09:49:22;;;;;;;1.42;0.60;;;11.80;71.40;;;;;;5113131;28;20517;-68
2021/05/06 09:51:58;;;;;;;3.15;0.90;;;11.80;70.90;;;;;;5112950;28;20434;-68
2021/05/06 09:54:29;;;;;;;1.98;0.80;;;11.90;70.90;;;;;;5113243;28;20123;-68
2021/05/06 09:57:03;;;;;;;1.52;0.77;;;11.90;71.10;;;;;;5112765;28;20032;-68
2021/05/06 09:59:32;;;;;;;2.17;0.80;;;11.90;71.10;;;;;;5112005;28;20111;-67
2021/05/06 10:02:10;;;;;;;3.90;0.63;;;11.90;70.60;;;;;;5112118;28;20024;-68
2021/05/06 10:04:39;;;;;;;4.63;0.75;;;12.00;70.60;;;;;;5111559;28;20020;-68
2021/05/06 10:07:16;;;;;;;4.38;0.52;;;12.00;70.00;;;;;;5112977;28;20039;-66
2021/05/06 10:10:10;;;;;;;2.50;0.70;;;12.00;69.20;;;;;;5112574;28;20105;-68
2021/05/06 10:12:38;;;;;;;1.65;0.70;;;12.00;68.40;;;;;;5099938;28;20461;-68
2021/05/06 10:15:06;;;;;;;4.75;0.88;;;12.10;67.80;;;;;;5111666;28;20387;-65
2021/05/06 10:17:32;;;;;;;1.13;0.50;;;12.10;68.20;;;;;;5112933;28;20479;-67
2021/05/06 10:19:59;;;;;;;2.50;0.77;;;12.10;68.70;;;;;;5113229;28;20020;-67
2021/05/06 10:22:29;;;;;;;4.28;1.58;;;12.10;68.60;;;;;;5113020;28;20015;-68
2021/05/06 10:24:55;;;;;;;3.13;1.25;;;12.10;68.60;;;;;;5113271;28;20031;-67
2021/05/06 10:27:26;;;;;;;9.15;1.00;;;12.20;69.20;;;;;;5113468;28;20027;-67
2021/05/06 10:29:57;;;;;;;4.32;1.35;;;12.20;69.80;;;;;;5116454;28;20035;-66
2021/05/06 10:32:24;;;;;;;2.50;1.00;;;12.20;69.10;;;;;;5116552;28;20073;-68
2021/05/06 10:34:55;;;;;;;17.10;11.75;;;12.20;68.50;;;;;;5116571;28;20051;-68
2021/05/06 10:37:32;;;;;;;7.38;2.17;;;12.30;70.10;;;;;;5116652;28;20031;-69
2021/05/06 10:39:59;;;;;;;3.78;0.50;;;12.30;69.80;;;;;;5116567;28;20031;-69
2021/05/06 10:42:32;;;;;;;17.30;6.22;;;12.40;68.60;;;;;;5116616;28;20031;-68
2021/05/06 10:44:59;;;;;;;7.80;4.32;;;12.40;68.10;;;;;;5116539;28;20049;-68
2021/05/06 10:47:45;;;;;;;5.05;1.90;;;12.40;67.80;;;;;;5116291;28;20468;-67
2021/05/06 10:50:12;;;;;;;17.10;10.57;;;12.40;67.80;;;;;;5116391;28;20416;-68
2021/05/06 10:52:40;;;;;;;438.85;47.25;;;12.40;67.90;;;;;;5116008;28;20387;-67
2021/05/06 10:55:10;;;;;;;3.28;1.58;;;12.50;68.80;;;;;;5116107;28;20020;-68
2021/05/06 10:57:37;;;;;;;5.93;2.17;;;12.50;68.90;;;;;;5116299;28;20387;-69
2021/05/06 11:00:23;;;;;;;54.20;23.55;;;12.50;67.90;;;;;;5116211;28;20024;-67
2021/05/06 11:02:52;;;;;;;20.60;9.82;;;12.50;67.80;;;;;;5115916;28;20138;-66
2021/05/06 11:05:23;;;;;;;10.77;5.22;;;12.50;67.80;;;;;;5116068;28;20023;-68
2021/05/06 11:08:04;;;;;;;16.38;8.98;;;12.60;68.30;;;;;;5115487;28;20051;-69
2021/05/06 11:10:43;;;;;;;22.60;14.43;;;12.60;69.30;;;;;;5115888;28;20391;-68
2021/05/06 11:13:09;;;;;;;54.08;33.22;;;12.60;70.50;;;;;;5115842;28;20031;-69
2021/05/06 11:15:36;;;;;;;11.93;9.02;;;12.60;69.30;;;;;;5115912;28;20023;-68
2021/05/06 11:18:04;;;;;;;4.88;2.08;;;12.60;68.60;;;;;;5115885;28;20368;-68
2021/05/06 11:20:30;;;;;;;3.42;1.20;;;12.60;68.30;;;;;;5115740;28;20114;-69
2021/05/06 11:23:01;;;;;;;4.43;1.33;;;12.60;67.30;;;;;;5115695;28;20112;-68
2021/05/06 11:25:27;;;;;;;15.73;4.40;;;12.60;67.10;;;;;;5115732;28;20027;-67
2021/05/06 11:28:25;;;;;;;18.98;10.52;;;12.60;67.10;;;;;;5115389;28;20034;-66
2021/05/06 11:30:53;;;;;;;2.35;1.13;;;12.60;66.90;;;;;;5081268;28;20036;-66
2021/05/06 11:33:22;;;;;;;4.05;1.98;;;12.60;66.60;;;;;;5115388;28;20479;-65
2021/05/06 11:36:11;;;;;;;14.95;8.52;;;12.60;66.30;;;;;;5115240;28;20051;-66
2021/05/06 11:38:37;;;;;;;31.75;9.90;;;12.60;66.50;;;;;;5115062;28;20542;-66
2021/05/06 11:41:05;;;;;;;7.53;4.38;;;12.60;66.50;;;;;;5115542;28;20079;-66
2021/05/06 11:43:32;;;;;;;27.88;12.63;;;12.60;66.70;;;;;;5114787;28;20535;-69
2021/05/06 11:46:10;;;;;;;2.75;1.05;;;12.70;66.70;;;;;;5114887;28;20425;-66
2021/05/06 11:48:37;;;;;;;3.65;1.00;;;12.70;66.30;;;;;;5113648;28;20442;-65
2021/05/06 11:51:03;;;;;;;2.97;0.80;;;12.80;65.80;;;;;;5114929;28;20074;-68
2021/05/06 11:53:29;;;;;;;3.55;1.52;;;12.80;65.90;;;;;;5115119;28;20480;-68
2021/05/06 11:55:55;;;;;;;2.25;0.57;;;12.80;65.50;;;;;;5115158;28;20043;-66
2021/05/06 11:58:27;;;;;;;6.95;1.33;;;12.80;66.00;;;;;;5114888;28;20031;-67
2021/05/06 12:00:54;;;;;;;3.90;0.57;;;12.80;66.10;;;;;;5115023;28;20034;-70
2021/05/06 12:03:20;;;;;;;3.47;0.85;;;12.80;66.20;;;;;;5114909;28;20024;-71
2021/05/06 12:05:50;;;;;;;2.88;1.10;;;12.90;66.80;;;;;;5114731;28;20070;-70
2021/05/06 12:08:16;;;;;;;2.15;1.00;;;12.90;67.20;;;;;;5114175;28;20767;-71
2021/05/06 12:10:42;;;;;;;4.03;0.93;;;12.90;66.60;;;;;;5114239;28;20031;-71
2021/05/06 12:13:09;;;;;;;5.10;0.95;;;13.00;66.50;;;;;;5114646;28;20030;-71
2021/05/06 12:15:35;;;;;;;6.97;0.80;;;13.10;66.70;;;;;;5114400;28;20460;-71
2021/05/06 12:18:24;;;;;;;1.35;0.63;;;13.10;67.00;;;;;;5114523;28;20069;-71
2021/05/06 12:20:55;;;;;;;5.68;1.10;;;13.20;67.00;;;;;;5114818;28;20104;-71
2021/05/06 12:23:21;;;;;;;4.07;0.80;;;13.20;66.90;;;;;;5114543;28;20026;-71
2021/05/06 12:25:48;;;;;;;4.20;1.23;;;13.30;66.50;;;;;;5113973;28;20027;-70
2021/05/06 12:28:14;;;;;;;4.88;1.23;;;13.30;66.60;;;;;;5112329;28;20432;-69
2021/05/06 12:30:40;;;;;;;11.07;1.33;;;13.40;67.00;;;;;;5113816;28;20111;-70
2021/05/06 12:33:06;;;;;;;4.70;0.93;;;13.50;66.80;;;;;;5113397;28;20004;-68
2021/05/06 12:35:32;;;;;;;6.15;1.10;;;13.50;66.40;;;;;;5113610;28;20043;-70
2021/05/06 12:37:58;;;;;;;4.22;0.85;;;13.60;66.00;;;;;;5113484;28;20486;-68
2021/05/06 12:40:27;;;;;;;3.90;0.95;;;13.60;65.50;;;;;;5113742;28;20103;-70
2021/05/06 12:42:53;;;;;;;2.97;1.00;;;13.70;65.60;;;;;;5113054;28;20027;-69
2021/05/06 12:45:19;;;;;;;3.80;0.80;;;13.70;65.50;;;;;;5113338;28;20102;-69
2021/05/06 12:47:48;;;;;;;3.45;0.80;;;13.70;65.60;;;;;;5113586;28;20368;-71
2021/05/06 12:50:20;;;;;;;4.68;1.13;;;13.80;65.60;;;;;;5112424;28;20040;-69
2021/05/06 12:52:47;;;;;;;5.50;1.10;;;13.80;65.70;;;;;;5113512;28;20024;-71
2021/05/06 12:55:25;;;;;;;3.45;0.80;;;13.80;65.90;;;;;;5113321;28;20038;-68
2021/05/06 12:58:13;;;;;;;3.85;0.70;;;13.70;66.10;;;;;;5113044;28;20024;-69
2021/05/06 13:00:43;;;;;;;5.57;0.98;;;13.70;66.20;;;;;;5113657;28;20019;-70
2021/05/06 13:03:13;;;;;;;1.90;0.90;;;13.70;66.20;;;;;;5113208;28;20369;-67
2021/05/06 13:05:42;;;;;;;5.68;0.77;;;13.70;66.70;;;;;;5113183;28;20027;-70
2021/05/06 13:08:08;;;;;;;3.92;1.00;;;13.60;67.70;;;;;;5113005;28;20122;-68
2021/05/06 13:10:58;;;;;;;2.97;0.90;;;13.60;68.50;;;;;;5113167;28;20478;-67
2021/05/06 13:13:42;;;;;;;2.15;0.75;;;13.60;67.90;;;;;;5113377;28;20416;-68
2021/05/06 13:16:10;;;;;;;1.70;0.63;;;13.50;67.60;;;;;;5113308;28;20034;-68
2021/05/06 13:18:36;;;;;;;5.43;0.77;;;13.50;67.50;;;;;;5113010;28;20027;-68
2021/05/06 13:21:04;;;;;;;6.10;0.70;;;13.50;67.50;;;;;;5112828;28;20027;-68
2021/05/06 13:23:36;;;;;;;3.33;0.73;;;13.50;67.70;;;;;;5113184;28;20495;-67
2021/05/06 13:26:06;;;;;;;3.13;0.90;;;13.50;68.10;;;;;;5112967;28;20019;-68
2021/05/06 13:28:32;;;;;;;2.63;0.63;;;13.40;68.30;;;;;;5113231;28;20042;-68
2021/05/06 13:31:12;;;;;;;3.30;0.90;;;13.40;68.50;;;;;;5113231;28;20379;-68
2021/05/06 13:33:39;;;;;;;3.00;1.20;;;13.40;68.50;;;;;;5111876;28;20019;-67
2021/05/06 13:36:12;;;;;;;2.35;0.98;;;13.40;68.60;;;;;;5112198;28;20047;-67
2021/05/06 13:39:03;;;;;;;6.05;1.30;;;13.50;68.90;;;;;;5112905;28;20067;-68
2021/05/06 13:41:39;;;;;;;2.63;0.90;;;13.70;69.70;;;;;;5112877;28;20104;-68
2021/05/06 13:44:07;;;;;;;3.90;1.00;;;13.90;69.20;;;;;;5112381;28;20103;-68
2021/05/06 13:46:42;;;;;;;4.60;0.95;;;13.90;69.00;;;;;;5112285;28;20410;-67
2021/05/06 13:49:07;;;;;;;2.17;0.80;;;14.10;69.10;;;;;;5112946;28;20036;-68
2021/05/06 13:51:33;;;;;;;3.15;0.77;;;14.20;69.70;;;;;;5112875;28;20490;-67
2021/05/06 13:53:59;;;;;;;3.40;1.25;;;14.30;69.30;;;;;;5112166;28;20049;-68
2021/05/06 13:56:24;;;;;;;6.07;0.93;;;14.40;68.80;;;;;;5111896;28;20064;-67
2021/05/06 13:58:51;;;;;;;6.50;1.65;;;14.50;68.10;;;;;;5112247;28;20027;-68
2021/05/06 14:01:18;;;;;;;3.88;0.98;;;14.50;67.30;;;;;;5112696;28;20050;-67
2021/05/06 14:03:44;;;;;;;3.42;0.95;;;14.60;67.20;;;;;;5116000;28;20019;-67
2021/05/06 14:06:10;;;;;;;3.38;0.98;;;14.50;67.40;;;;;;5117011;28;20103;-68
2021/05/06 14:08:36;;;;;;;4.25;1.02;;;14.60;68.60;;;;;;5116720;28;20042;-67
2021/05/06 14:11:03;;;;;;;5.50;0.90;;;14.60;67.70;;;;;;5117111;28;20054;-68
2021/05/06 14:13:31;;;;;;;3.47;1.77;;;14.60;67.40;;;;;;5116945;28;20023;-67
2021/05/06 14:15:57;;;;;;;4.43;1.10;;;14.70;67.20;;;;;;5116746;28;20023;-67
2021/05/06 14:18:23;;;;;;;10.20;5.38;;;14.80;68.10;;;;;;5116947;28;20091;-67
2021/05/06 14:20:49;;;;;;;9.32;6.15;;;14.80;66.60;;;;;;5116651;28;20106;-66
2021/05/06 14:23:18;;;;;;;2.92;1.08;;;14.80;66.70;;;;;;5115370;28;20023;-67
2021/05/06 14:25:45;;;;;;;4.05;1.05;;;14.80;66.70;;;;;;5116890;28;20080;-66
2021/05/06 14:28:11;;;;;;;2.40;0.93;;;14.80;66.40;;;;;;5116671;28;20031;-69
2021/05/06 14:30:37;;;;;;;2.33;1.25;;;14.70;66.60;;;;;;5116918;28;20023;-69
2021/05/06 14:33:02;;;;;;;3.03;1.00;;;14.70;66.70;;;;;;5116930;28;20387;-70
2021/05/06 14:35:30;;;;;;;3.05;1.33;;;14.70;66.90;;;;;;5116780;28;20016;-69
2021/05/06 14:37:56;;;;;;;7.35;2.50;;;14.70;67.10;;;;;;5116252;28;20016;-70
2021/05/06 14:40:22;;;;;;;3.47;1.10;;;14.70;67.40;;;;;;5115726;28;20047;-69
2021/05/06 14:42:48;;;;;;;2.80;0.80;;;14.70;67.40;;;;;;5116391;28;20052;-67
2021/05/06 14:45:14;;;;;;;4.82;1.00;;;14.70;68.10;;;;;;5116708;28;20440;-66
2021/05/06 14:47:40;;;;;;;5.55;1.33;;;14.70;67.40;;;;;;5116561;28;20023;-68
2021/05/06 14:50:16;;;;;;;1.58;0.60;;;14.70;67.50;;;;;;5116487;28;20039;-67
2021/05/06 14:52:41;;;;;;;4.65;0.90;;;14.80;67.20;;;;;;5116016;28;20569;-67
2021/05/06 14:55:10;;;;;;;2.92;0.85;;;14.80;67.00;;;;;;5116700;28;20410;-67
2021/05/06 14:57:36;;;;;;;4.88;1.00;;;14.70;67.00;;;;;;5116229;28;20429;-67
2021/05/06 15:00:05;;;;;;;4.80;1.08;;;14.70;67.40;;;;;;5115910;28;20398;-67
2021/05/06 15:02:31;;;;;;;5.82;1.23;;;14.80;67.80;;;;;;5116085;28;20020;-69
2021/05/06 15:04:56;;;;;;;2.65;1.10;;;14.80;67.60;;;;;;5116073;28;20511;-69
2021/05/06 15:07:22;;;;;;;5.18;0.70;;;14.80;66.80;;;;;;5115756;28;20096;-67
2021/05/06 15:09:48;;;;;;;2.25;0.77;;;14.80;66.80;;;;;;5116069;28;20027;-67
2021/05/06 15:12:13;;;;;;;6.07;1.40;;;14.90;66.60;;;;;;5115962;28;20494;-68
2021/05/06 15:14:39;;;;;;;4.28;0.80;;;14.90;66.40;;;;;;5115161;28;20016;-68
2021/05/06 15:17:05;;;;;;;2.25;0.90;;;14.90;66.40;;;;;;5115792;28;20020;-68
2021/05/06 15:19:31;;;;;;;3.20;0.90;;;14.90;66.20;;;;;;5115639;28;20100;-68
2021/05/06 15:21:57;;;;;;;2.88;0.90;;;14.90;66.40;;;;;;5114618;28;20024;-68
2021/05/06 15:24:22;;;;;;;3.60;0.98;;;14.90;66.50;;;;;;5116192;28;20020;-68
2021/05/06 15:26:48;;;;;;;2.70;0.95;;;15.00;66.10;;;;;;5116245;28;20016;-69
2021/05/06 15:29:14;;;;;;;1.55;0.80;;;15.00;65.90;;;;;;5115507;28;20032;-69
2021/05/06 15:31:40;;;;;;;1.92;0.70;;;15.00;65.60;;;;;;5115612;28;20389;-69
2021/05/06 15:34:06;;;;;;;5.53;0.90;;;15.00;65.70;;;;;;5115781;28;20024;-69
2021/05/06 15:36:32;;;;;;;1.35;0.82;;;15.00;65.90;;;;;;5115842;28;20091;-67
2021/05/06 15:39:01;;;;;;;2.58;1.05;;;15.00;65.60;;;;;;5115408;28;20023;-68
2021/05/06 15:41:27;;;;;;;2.67;0.90;;;15.00;66.10;;;;;;5115757;28;20069;-67
2021/05/06 15:43:53;;;;;;;2.00;0.80;;;15.00;65.50;;;;;;5115359;28;20016;-67
2021/05/06 15:46:19;;;;;;;3.83;1.27;;;15.00;65.50;;;;;;5115338;28;20081;-67
2021/05/06 15:48:45;;;;;;;5.47;1.20;;;15.00;65.60;;;;;;5114937;28;20028;-67
2021/05/06 15:51:11;;;;;;;3.22;1.17;;;15.00;65.70;;;;;;5114736;28;20024;-67
2021/05/06 15:53:37;;;;;;;1.48;0.82;;;15.00;65.60;;;;;;5113780;28;20026;-67
2021/05/06 15:56:04;;;;;;;2.92;1.05;;;15.00;65.60;;;;;;5114734;28;20077;-66
2021/05/06 15:58:33;;;;;;;4.82;0.95;;;15.00;65.60;;;;;;5114505;28;20117;-67
2021/05/06 16:01:00;;;;;;;9.25;1.10;;;15.00;66.00;;;;;;5114165;28;20035;-67
2021/05/06 16:03:28;;;;;;;4.18;1.00;;;15.10;66.10;;;;;;5113180;28;20472;-67
2021/05/06 16:05:54;;;;;;;5.38;1.13;;;15.10;66.40;;;;;;5112886;28;20023;-67
2021/05/06 16:08:21;;;;;;;5.10;1.17;;;15.10;66.20;;;;;;5113787;28;20424;-69
2021/05/06 16:10:49;;;;;;;3.85;1.17;;;15.10;66.40;;;;;;5112619;28;20024;-67
2021/05/06 16:13:15;;;;;;;5.72;1.25;;;15.20;66.30;;;;;;5112305;28;20034;-67